Πλησιέστερες Αναφορές METAR

 

LGTS - Thessaloniki/Makedonia-Elev 7m
Distance from station: Ν 13km
Ενημερώθηκε: 01/12/2022 10:50
Βροχή, Σχεδόν νεφελώδης
Βροχή, Σχεδόν νεφελώδης
 Ανεμος από Α
Ανεμος: Α 35 km/h
Θερμοκρασία: 12°C
Σημείο Δρόσου: 10°C
Υγρασία: 88%
Βαρόμετρο: 1011 hPa
Συνθήκες: Βροχή
Clouds: Σχεδόν νεφελώδης
Visibility: 7 km
Cloud details: Few Clouds 244 m
Few Clouds 610 m
Σχεδόν νεφελώδης 914 m
2022/12/01 08:50 LGTS 010850Z 09019KT 7000 RA FEW008 FEW020TCU BKN030 12/10 Q1011 TEMPO 6000 SHRA
LGAV - Athens/Elef. Venizelos-Elev 94m
Distance from station: ΝΝΑ 312km
Ενημερώθηκε: 01/12/2022 10:50
Μερικώς νεφελώδης
Μερικώς νεφελώδης
 Ανεμος από ΝΝΔ
Ανεμος: ΝΝΔ 20 km/h
Θερμοκρασία: 17°C
Σημείο Δρόσου: 10°C
Υγρασία: 64%
Βαρόμετρο: 1012 hPa
Clouds: Μερικώς νεφελώδης
Visibility: 10 km
Cloud details: Μερικώς νεφελώδης 762 m
2022/12/01 08:50 LGAV 010850Z 21011KT 9999 SCT025 17/10 Q1012 NOSIG
 
LGAL - Alexandroupolis-Elev 3m
Distance from station: Α 251km
Ενημερώθηκε: 01/12/2022 10:50
Ασθενής βροχή, Συννεφιά
Ασθενής βροχή, Συννεφιά
 Ανεμος από ΒΑ
Ανεμος: ΒΑ 33 km/h, Ριπή: 52 km/h
Θερμοκρασία: 10°C
Wind Chill: 6°C
Σημείο Δρόσου: 8°C
Υγρασία: 88%
Βαρόμετρο: 1015 hPa
Συνθήκες: Ασθενής βροχή
Clouds: Συννεφιά
Visibility: 10 km
Cloud details: Μερικώς νεφελώδης 244 m
Συννεφιά 457 m
2022/12/01 08:50 LGAL 010850Z 05018G28KT 9999 -RA SCT008 OVC015 10/08 Q1015
LGKV - Kavala/Crysoupolis-Elev 5m
Distance from station: ΑΒΑ 144km
Ενημερώθηκε: 01/12/2022 10:50
Βροχή, Συννεφιά
Βροχή, Συννεφιά
 Ανεμος από ΒΑ
Ανεμος: ΒΑ 26 km/h, Ριπή: 44 km/h
Θερμοκρασία: 10°C
Wind Chill: 7°C
Σημείο Δρόσου: 8°C
Υγρασία: 88%
Βαρόμετρο: 1014 hPa
Συνθήκες: Βροχή
Clouds: Συννεφιά
Visibility: 8 km
Cloud details: Μερικώς νεφελώδης 244 m
Σχεδόν νεφελώδης 610 m
Συννεφιά 2134 m
2022/12/01 08:50 LGKV 010850Z 04014G24KT 8000 RA SCT008 BKN020 OVC070 10/08 Q1014
 
LGSK - Skiathos Island-Elev 15m
Distance from station: ΝΝΑ 168km
Ενημερώθηκε: 01/12/2022 10:50
Μερικώς νεφελώδης
Μερικώς νεφελώδης
 Ανεμος από ΝΝΔ
Ανεμος: ΝΝΔ 9 km/h
Θερμοκρασία: 16°C
Σημείο Δρόσου: 11°C
Υγρασία: 72%
Βαρόμετρο: 1009 hPa
Clouds: Μερικώς νεφελώδης
Visibility: 10 km
Cloud details: Few Clouds 305 m
Μερικώς νεφελώδης 762 m
2022/12/01 08:50 LGSK 010850Z 20005KT 9999 FEW010 SCT025 16/11 Q1009
LGLM - Limnos Island-Elev 5m
Distance from station: ΑΝΑ 210km
Ενημερώθηκε: 01/12/2022 10:50
Σχεδόν νεφελώδης
Σχεδόν νεφελώδης
 Ανεμος από ΑΝΑ
Ανεμος: ΑΝΑ 19 km/h
Θερμοκρασία: 14°C
Σημείο Δρόσου: 13°C
Υγρασία: 94%
Βαρόμετρο: 1012 hPa
Clouds: Σχεδόν νεφελώδης
Visibility: 10 km
Cloud details: Few Clouds 244 m
Σχεδόν νεφελώδης 762 m
2022/12/01 08:50 LGLM 010850Z 11010KT 9999 FEW008 BKN025 14/13 Q1012
 
LGMT - Mitilini Island-Elev 17m
Distance from station: ΑΝΑ 358km
Ενημερώθηκε: 01/12/2022 10:50
Ασθενής βροχή, Σχεδόν νεφελώδης
Ασθενής βροχή, Σχεδόν νεφελώδης
 Ανεμος από Ν
Ανεμος: Ν 13 km/h
Θερμοκρασία: 13°C
Σημείο Δρόσου: 12°C
Υγρασία: 94%
Βαρόμετρο: 1015 hPa
Συνθήκες: Ασθενής βροχή
Clouds: Σχεδόν νεφελώδης
Visibility: 8 km
Cloud details: Μερικώς νεφελώδης 549 m
Σχεδόν νεφελώδης 610 m
2022/12/01 08:50 LGMT 010850Z 18007KT 140V220 8000 -RA SCT018TCU BKN020 13/12 Q1015
LGSY - Skiros Island-Elev 15m
Distance from station: ΝΑ 227km
Ενημερώθηκε: 01/12/2022 10:50
Μερικώς νεφελώδης
Μερικώς νεφελώδης
 Ανεμος από ΝΑ
Ανεμος: ΝΑ 9 km/h
Θερμοκρασία: 16°C
Σημείο Δρόσου: 13°C
Υγρασία: 83%
Βαρόμετρο: 1011 hPa
Clouds: Μερικώς νεφελώδης
Visibility: 10 km
Cloud details: Μερικώς νεφελώδης 244 m
Μερικώς νεφελώδης 610 m
2022/12/01 08:50 LGSY 010850Z 13005KT 9999 SCT008 SCT020 16/13 Q1011 RMK SCT080 SCT180 BLU
 
LGKZ - Kozani-Elev 628m
Distance from station: ΔΝΔ 102km
Ενημερώθηκε: 01/12/2022 10:50
Ασθενής βροχή, Συννεφιά
Ασθενής βροχή, Συννεφιά
 Ανεμος από Β
Ανεμος: Β 11 km/h
Θερμοκρασία: 6°C
Wind Chill: 4°C
Σημείο Δρόσου: 6°C
Υγρασία: 100%
Βαρόμετρο: 1012 hPa
Συνθήκες: Ασθενής βροχή
Clouds: Συννεφιά
Visibility: 8 km
Cloud details: Few Clouds 244 m
Σχεδόν νεφελώδης 610 m
Συννεφιά 2134 m
2022/12/01 08:50 LGKZ 010850Z 35006KT 8000 -RA FEW008 BKN020 OVC070 06/06 Q1012
LGIO - Ioannina-Elev 476m
Distance from station: ΔΝΔ 209km
Ενημερώθηκε: 01/12/2022 10:50
Σχεδόν νεφελώδης
Σχεδόν νεφελώδης
 Ανεμος από calm
Ανεμος: Απνοια
Θερμοκρασία: 10°C
Σημείο Δρόσου: 7°C
Υγρασία: 82%
Βαρόμετρο: 1010 hPa
Clouds: Σχεδόν νεφελώδης
Visibility: 10 km
Cloud details: Few Clouds 610 m
Μερικώς νεφελώδης 1067 m
Σχεδόν νεφελώδης 2743 m
2022/12/01 08:50 LGIO 010850Z 00000KT 9999 FEW020 SCT035 BKN090 10/07 Q1010
 
LGZA - Zakinthos-Elev 3m
Distance from station: ΝΝΔ 367km
Ενημερώθηκε: 01/12/2022 10:50
Βροχή, Συννεφιά
Βροχή, Συννεφιά
 Ανεμος από Ν
Ανεμος: Ν 24 km/h
Θερμοκρασία: 15°C
Σημείο Δρόσου: 14°C
Υγρασία: 94%
Βαρόμετρο: 1008 hPa
Συνθήκες: Βροχή
Clouds: Συννεφιά
Visibility: 9 km
Cloud details: Μερικώς νεφελώδης 366 m
Few Clouds 549 m
Σχεδόν νεφελώδης 610 m
Συννεφιά 2134 m
2022/12/01 08:50 LGZA 010850Z 18013KT 9000 4000NW RA SCT012 FEW018TCU BKN020 OVC070 15/14 Q1008
LGKR - Corfu Island-Elev 2m
Distance from station: ΔΝΔ 282km
Ενημερώθηκε: 01/12/2022 10:50
Σχεδόν νεφελώδης
Σχεδόν νεφελώδης
 Ανεμος από ΑΒΑ
Ανεμος: ΑΒΑ 6 km/h
Θερμοκρασία: 16°C
Σημείο Δρόσου: 9°C
Υγρασία: 63%
Βαρόμετρο: 1008 hPa
Clouds: Σχεδόν νεφελώδης
Visibility: 10 km
Cloud details: Few Clouds 549 m
Μερικώς νεφελώδης 1219 m
Σχεδόν νεφελώδης 2438 m
2022/12/01 08:50 LGKR 010850Z 06003KT 9999 FEW018 SCT040 BKN080 16/09 Q1008 NOSIG
 
LGSO - Syros Island-Elev 72m
Distance from station: ΝΝΑ 397km
Ενημερώθηκε: 01/12/2022 10:50
Μερικώς νεφελώδης
Μερικώς νεφελώδης
 Ανεμος από ΝΝΑ
Ανεμος: ΝΝΑ 24 km/h
Θερμοκρασία: 18°C
Σημείο Δρόσου: 13°C
Υγρασία: 73%
Βαρόμετρο: 1013 hPa
Clouds: Μερικώς νεφελώδης
Visibility: 10 km
Cloud details: Few Clouds 366 m
Μερικώς νεφελώδης 610 m
2022/12/01 08:50 LGSO 010850Z 16013KT 9999 FEW012 SCT020 18/13 Q1013
LGMK - Mikonos Island-Elev 123m
Distance from station: ΝΝΑ 412km
Ενημερώθηκε: 01/12/2022 10:50
Σχεδόν νεφελώδης
Σχεδόν νεφελώδης
 Ανεμος από varies
Ανεμος: varies 0 km/h
Θερμοκρασία: 16°C
Σημείο Δρόσου: 9°C
Υγρασία: 63%
Βαρόμετρο: 1013 hPa
Clouds: Σχεδόν νεφελώδης
Visibility: 10 km
Cloud details: Few Clouds 366 m
Σχεδόν νεφελώδης 610 m
2022/12/01 08:50 LGMK 010850Z /////KT 9999 FEW012 BKN020 16/09 Q1013
 
LGSR - Santorini Island-Elev 40m
Distance from station: ΝΝΑ 520km
Ενημερώθηκε: 01/12/2022 10:50
Few Clouds
Few Clouds
 Ανεμος από ΝΝΔ
Ανεμος: ΝΝΔ 7 km/h
Θερμοκρασία: 19°C
Σημείο Δρόσου: 12°C
Υγρασία: 64%
Βαρόμετρο: 1014 hPa
Clouds: Few Clouds
Visibility: 10 km
Cloud details: Few Clouds 762 m
2022/12/01 08:50 LGSR 010850Z 21004KT 9999 FEW025 19/12 Q1014
LGKL - Kalamata-Elev 8m
Distance from station: Ν 405km
Ενημερώθηκε: 01/12/2022 10:50
Light thunderstorm, Βροχή, Σχεδόν νεφελώδης
Light thunderstorm, Βροχή, Σχεδόν νεφελώδης
 Ανεμος από calm
Ανεμος: Απνοια
Θερμοκρασία: 13°C
Σημείο Δρόσου: 12°C
Υγρασία: 94%
Βαρόμετρο: 1012 hPa
Συνθήκες: Light thunderstorm, Βροχή
Clouds: Σχεδόν νεφελώδης
Visibility: 8 km
Cloud details: Few Clouds 549 m
Μερικώς νεφελώδης 610 m
Σχεδόν νεφελώδης 2438 m
2022/12/01 08:50 LGKL 010850Z 00000KT 8000 -TSRA FEW018CB SCT020TCU BKN080 13/12 Q1012
 
LGIR - Iraklion/Crete-Elev 5m
Distance from station: ΝΝΑ 622km
Ενημερώθηκε: 01/12/2022 10:20
Μερικώς νεφελώδης
Μερικώς νεφελώδης
 Ανεμος από ΝΝΔ
Ανεμος: ΝΝΔ 13 km/h
Θερμοκρασία: 19°C
Σημείο Δρόσου: 12°C
Υγρασία: 64%
Βαρόμετρο: 1014 hPa
Clouds: Μερικώς νεφελώδης
Visibility: 10 km
Cloud details: Μερικώς νεφελώδης 610 m
2022/12/01 08:20 LGIR 010820Z 20007KT 9999 SCT020 19/12 Q1014 NOSIG
LGRP - Rhodes-Elev 5m
Distance from station: ΝΑ 649km
Ενημερώθηκε: 01/12/2022 10:50
Σχεδόν νεφελώδης
Σχεδόν νεφελώδης
 Ανεμος από ΝΝΑ
Ανεμος: ΝΝΑ 11 km/h
Θερμοκρασία: 18°C
Σημείο Δρόσου: 12°C
Υγρασία: 68%
Βαρόμετρο: 1015 hPa
Clouds: Σχεδόν νεφελώδης
Visibility: 10 km
Cloud details: Few Clouds 488 m
Σχεδόν νεφελώδης 610 m
2022/12/01 08:50 LGRP 010850Z 16006KT 9999 FEW016TCU BKN020 18/12 Q1015 NOSIG
 
LWOH - Ohrid/FYROM-Elev 761m
Distance from station: ΔΒΔ 188km
Ενημερώθηκε: 01/12/2022 11:00
Συννεφιά
Συννεφιά
 Ανεμος από ΒΔ
Ανεμος: ΒΔ 11 km/h
Θερμοκρασία: 7°C
Wind Chill: 5°C
Σημείο Δρόσου: 3°C
Υγρασία: 76%
Βαρόμετρο: 1013 hPa
Clouds: Συννεφιά
Visibility: 10 km
Cloud details: Few Clouds 610 m
Συννεφιά 1006 m
2022/12/01 09:00 LWOH 010900Z 32006KT 9999 FEW020 OVC033 07/03 Q1013
LBSF - Sofia/Bulgaria-Elev 595m
Distance from station: Β 227km
Ενημερώθηκε: 01/12/2022 10:30
Ασθενής βροχή, Συννεφιά
Ασθενής βροχή, Συννεφιά
 Ανεμος από ΝΑ
Ανεμος: ΝΑ 15 km/h
Θερμοκρασία: 3°C
Wind Chill: -1°C
Σημείο Δρόσου: 2°C
Υγρασία: 93%
Βαρόμετρο: 1019 hPa
Συνθήκες: Ασθενής βροχή
Clouds: Συννεφιά
Visibility: 10 km
Cloud details: Συννεφιά 549 m
2022/12/01 08:30 LBSF 010830Z 13008KT 9999 -RA OVC018 03/02 Q1019 NOSIG
Σημερινά ρεκόρ Μετεωρολογικού Σταθμού
Δεν έχει σημειωθεί νέο ρεκόρ μέχρι τις 10:58 σήμερα - 1/12/2022